Time;durP1;ratioP1;P1;durP2;ratioP2;P2;SDS_P1;SDS_P2;PMS_P1;PMS_P2;Temp;Humidity;BMP_temperature;BMP_pressure;BME280_temperature;BME280_humidity;BME280_pressure;Samples;Min_cycle;Max_cycle;Signal;HPM_P1;HPM_P2
2022/05/15 00:02:20;;;;;;;;;;;461.30;1536.00;;;;;;5077012;28;20340;-68
2022/05/15 00:04:46;;;;;;;;;;;461.10;1587.20;;;;;;5076690;28;19955;-67
2022/05/15 00:07:11;;;;;;;;;;;461.00;1689.60;;;;;;5076550;28;20309;-67
2022/05/15 00:09:37;;;;;;;;;;;460.90;1587.20;;;;;;5076449;28;20014;-67
2022/05/15 00:12:04;;;;;;;;;;;461.00;1587.20;;;;;;5076552;28;19950;-67
2022/05/15 00:14:30;;;;;;;;;;;460.90;1587.20;;;;;;5076686;28;19908;-67
2022/05/15 00:16:56;;;;;;;;;;;460.90;1561.60;;;;;;5076299;28;19923;-67
2022/05/15 00:19:21;;;;;;;;;;;460.80;1587.20;;;;;;5076395;28;19905;-67
2022/05/15 00:21:47;;;;;;;;;;;460.80;1587.20;;;;;;5076553;28;20344;-67
2022/05/15 00:24:13;;;;;;;;;;;436.10;1561.60;;;;;;5076233;28;19912;-67
2022/05/15 00:26:38;;;;;;;;;;;460.90;1561.60;;;;;;5076219;28;19943;-68
2022/05/15 00:29:04;;;;;;;;;;;460.80;1561.60;;;;;;5074961;28;19999;-67
2022/05/15 00:31:30;;;;;;;;;;;436.10;1561.60;;;;;;5076102;28;19908;-67
2022/05/15 00:33:56;;;;;;;;;;;436.10;1536.00;;;;;;5076369;28;19914;-67
2022/05/15 00:36:21;;;;;;;;;;;436.10;1561.60;;;;;;5082881;28;19916;-67
2022/05/15 00:38:47;;;;;;;;;;;436.00;1561.60;;;;;;5096527;28;19904;-67
2022/05/15 00:41:13;;;;;;;;;;;436.00;1561.60;;;;;;5096190;28;19904;-67
2022/05/15 00:43:42;;;;;;;;;;;435.90;1792.00;;;;;;5096158;28;19934;-67
2022/05/15 00:46:08;;;;;;;;;;;;;;;;;;5096087;28;20272;-68
2022/05/15 00:48:33;;;;;;;;;;;435.90;1561.60;;;;;;5096101;28;19911;-67
2022/05/15 00:51:01;;;;;;;;;;;435.80;1587.20;;;;;;5095999;28;19904;-67
2022/05/15 00:53:27;;;;;;;;;;;435.70;1587.20;;;;;;5095956;28;19957;-68
2022/05/15 00:55:52;;;;;;;;;;;435.70;1587.20;;;;;;5095857;28;19908;-67
2022/05/15 00:58:18;;;;;;;;;;;;;;;;;;5096066;28;19915;-67
2022/05/15 01:00:44;;;;;;;;;;;;;;;;;;5095877;28;19904;-67
2022/05/15 01:03:11;;;;;;;;;;;;;;;;;;5096034;28;19911;-68
2022/05/15 01:05:37;;;;;;;;;;;;;;;;;;5095550;28;19912;-67
2022/05/15 01:08:03;;;;;;;;;;;;;;;;;;5095917;28;19986;-67
2022/05/15 01:10:29;;;;;;;;;;;;;;;;;;5095884;28;20058;-67
2022/05/15 01:12:55;;;;;;;;;;;;;;;;;;5095925;28;19986;-67
2022/05/15 01:15:21;;;;;;;;;;;;;;;;;;5095784;28;20416;-67
2022/05/15 01:17:47;;;;;;;;;;;;;;;;;;5095731;28;19908;-67
2022/05/15 01:20:13;;;;;;;;;;;;;;;;;;5095754;28;19957;-67
2022/05/15 01:22:39;;;;;;;;;;;;;;;;;;5095974;28;20293;-67
2022/05/15 01:25:05;;;;;;;;;;;;;;;;;;5095303;28;20007;-67
2022/05/15 01:27:31;;;;;;;;;;;;;;;;;;5095577;28;19931;-67
2022/05/15 01:29:57;;;;;;;;;;;;;;;;;;5095562;28;19938;-67
2022/05/15 01:32:23;;;;;;;;;;;;;;;;;;5095193;28;19904;-67
2022/05/15 01:34:49;;;;;;;;;;;;;;;;;;5095608;28;19904;-67
2022/05/15 01:37:15;;;;;;;;;;;;;;;;;;5094904;28;19920;-67
2022/05/15 01:39:41;;;;;;;;;;;;;;;;;;5095166;28;19904;-67
2022/05/15 01:42:08;;;;;;;;;;;;;;;;;;5095327;28;19912;-67
2022/05/15 01:44:34;;;;;;;;;;;;;;;;;;5095225;28;19999;-67
2022/05/15 01:47:00;;;;;;;;;;;;;;;;;;5095156;28;19966;-67
2022/05/15 01:49:26;;;;;;;;;;;;;;;;;;5095190;28;20280;-67
2022/05/15 01:51:52;;;;;;;;;;;;;;;;;;5095144;28;20349;-67
2022/05/15 01:54:18;;;;;;;;;;;435.40;1612.80;;;;;;5094741;28;19904;-67
2022/05/15 01:56:44;;;;;;;;;;;435.20;1638.40;;;;;;5094923;28;19912;-67
2022/05/15 01:59:09;;;;;;;;;;;435.20;1638.40;;;;;;5094938;28;19908;-67
2022/05/15 02:01:35;;;;;;;;;;;435.20;1638.40;;;;;;5094715;28;20364;-67
2022/05/15 02:04:01;;;;;;;;;;;410.40;1638.40;;;;;;5094666;28;19904;-67
2022/05/15 02:06:28;;;;;;;;;;;410.40;1664.00;;;;;;5094575;28;20340;-67
2022/05/15 02:08:54;;;;;;;;;;;410.40;1638.40;;;;;;5094570;28;19936;-68
2022/05/15 02:11:20;;;;;;;;;;;;;;;;;;5094442;28;19999;-68
2022/05/15 02:13:46;;;;;;;;;;;;;;;;;;5095054;28;19943;-66
2022/05/15 02:16:12;;;;;;;;;;;435.30;1638.40;;;;;;5094366;28;20272;-67
2022/05/15 02:18:38;;;;;;;;;;;435.20;1664.00;;;;;;5093436;28;19904;-67
2022/05/15 02:21:04;;;;;;;;;;;410.40;1664.00;;;;;;5094352;28;19904;-67
2022/05/15 02:23:30;;;;;;;;;;;410.50;1664.00;;;;;;5094238;28;19904;-68
2022/05/15 02:25:56;;;;;;;;;;;435.20;1664.00;;;;;;5094208;28;19953;-67
2022/05/15 02:28:21;;;;;;;;;;;435.40;1638.40;;;;;;5094240;28;19980;-67
2022/05/15 02:30:48;;;;;;;;;;;435.20;1664.00;;;;;;5094195;28;20012;-67
2022/05/15 02:33:14;;;;;;;;;;;435.20;1664.00;;;;;;5094444;28;19961;-67
2022/05/15 02:35:39;;;;;;;;;;;410.40;1689.60;;;;;;5093840;28;19955;-68
2022/05/15 02:38:05;;;;;;;;;;;435.20;1715.20;;;;;;5094349;28;19983;-67
2022/05/15 02:40:31;;;;;;;;;;;410.20;1664.00;;;;;;5093982;28;19911;-67
2022/05/15 02:42:57;;;;;;;;;;;410.20;1689.60;;;;;;5094718;28;19904;-68
2022/05/15 02:45:22;;;;;;;;;;;410.30;1689.60;;;;;;5093952;28;19904;-67
2022/05/15 02:47:48;;;;;;;;;;;410.20;1689.60;;;;;;5093919;28;19911;-67
2022/05/15 02:52:58;;;;;;;;;;;410.20;1689.60;;;;;;5094211;28;19979;-67
2022/05/15 02:55:24;;;;;;;;;;;410.00;1689.60;;;;;;5075711;28;19908;-67
2022/05/15 02:57:50;;;;;;;;;;;410.00;1715.20;;;;;;5094095;28;19904;-66
2022/05/15 03:00:17;;;;;;;;;;;410.00;1740.80;;;;;;5094225;28;19930;-67
2022/05/15 03:02:43;;;;;;;;;;;;;;;;;;5094082;28;19904;-67
2022/05/15 03:05:09;;;;;;;;;;;410.30;1689.60;;;;;;5094242;28;19904;-67
2022/05/15 03:07:36;;;;;;;;;;;410.10;1715.20;;;;;;5093843;28;19946;-66
2022/05/15 03:10:02;;;;;;;;;;;410.10;1715.20;;;;;;5093809;28;19904;-67
2022/05/15 03:12:28;;;;;;;;;;;410.10;1715.20;;;;;;5093960;28;19990;-68
2022/05/15 03:14:54;;;;;;;;;;;410.10;1715.20;;;;;;5093961;28;19943;-66
2022/05/15 03:17:19;;;;;;;;;;;410.50;1689.60;;;;;;5093610;28;20417;-67
2022/05/15 03:19:45;;;;;;;;;;;410.40;1971.20;;;;;;5093644;28;19904;-66
2022/05/15 03:22:11;;;;;;;;;;;410.40;1689.60;;;;;;5093954;28;19904;-67
2022/05/15 03:24:37;;;;;;;;;;;435.20;1664.00;;;;;;5093685;28;19911;-67
2022/05/15 03:27:03;;;;;;;;;;;410.50;1689.60;;;;;;5093826;28;19904;-67
2022/05/15 03:29:28;;;;;;;;;;;410.40;1689.60;;;;;;5094581;28;19904;-67
2022/05/15 03:31:54;;;;;;;;;;;410.30;1715.20;;;;;;5098327;28;19904;-67
2022/05/15 03:34:20;;;;;;;;;;;;;;;;;;5098138;28;19994;-67
2022/05/15 03:36:47;;;;;;;;;;;410.50;1689.60;;;;;;5097242;28;20026;-67
2022/05/15 03:39:14;;;;;;;;;;;410.40;1715.20;;;;;;5097577;28;19967;-67
2022/05/15 03:41:40;;;;;;;;;;;410.30;1715.20;;;;;;5097491;28;20306;-67
2022/05/15 03:44:06;;;;;;;;;;;410.20;1715.20;;;;;;5097337;28;20417;-67
2022/05/15 03:46:32;;;;;;;;;;;410.20;1740.80;;;;;;5097288;28;19904;-67
2022/05/15 03:48:58;;;;;;;;;;;410.10;1740.80;;;;;;5097557;28;20427;-67
2022/05/15 03:51:24;;;;;;;;;;;410.10;1740.80;;;;;;5097818;28;19952;-67
2022/05/15 03:53:50;;;;;;;;;;;410.10;1740.80;;;;;;5097771;28;19904;-67
2022/05/15 03:56:17;;;;;;;;;;;410.20;1740.80;;;;;;5097104;28;19912;-67
2022/05/15 03:58:42;;;;;;;;;;;410.30;1740.80;;;;;;5097025;28;20272;-67
2022/05/15 04:01:08;;;;;;;;;;;410.30;1715.20;;;;;;5097014;28;19911;-67
2022/05/15 04:03:34;;;;;;;;;;;410.30;1740.80;;;;;;5097299;28;19904;-67
2022/05/15 04:06:00;;;;;;;;;;;410.30;1740.80;;;;;;5097266;28;20340;-66
2022/05/15 04:08:27;;;;;;;;;;;410.40;1715.20;;;;;;5097140;28;19904;-67
2022/05/15 04:10:53;;;;;;;;;;;410.40;1715.20;;;;;;5097243;28;19956;-67
2022/05/15 04:13:19;;;;;;;;;;;410.50;1715.20;;;;;;5096775;28;19904;-67
2022/05/15 04:15:45;;;;;;;;;;;410.40;1740.80;;;;;;5096680;28;19912;-66
2022/05/15 04:18:11;;;;;;;;;;;410.50;1740.80;;;;;;5096757;28;19994;-67
2022/05/15 04:20:37;;;;;;;;;;;410.40;1740.80;;;;;;5096734;28;19911;-67
2022/05/15 04:23:03;;;;;;;;;;;435.20;1715.20;;;;;;5096765;28;20364;-66
2022/05/15 04:25:28;;;;;;;;;;;435.20;1740.80;;;;;;5096525;28;20421;-66
2022/05/15 04:27:54;;;;;;;;;;;435.20;1740.80;;;;;;5096811;28;19904;-66
2022/05/15 04:30:22;;;;;;;;;;;435.30;1715.20;;;;;;5096546;28;19990;-67
2022/05/15 04:32:48;;;;;;;;;;;435.30;1740.80;;;;;;5096777;28;19904;-67
2022/05/15 04:35:13;;;;;;;;;;;435.30;1715.20;;;;;;5096754;28;20000;-67
2022/05/15 04:37:39;;;;;;;;;;;435.40;1715.20;;;;;;5096146;28;20010;-67
2022/05/15 04:40:05;;;;;;;;;;;435.60;1715.20;;;;;;5096621;28;19911;-67
2022/05/15 04:42:31;;;;;;;;;;;435.70;1689.60;;;;;;5095309;28;20002;-67
2022/05/15 04:44:57;;;;;;;;;;;435.80;1689.60;;;;;;5096563;28;19935;-67
2022/05/15 04:47:23;;;;;;;;;;;436.00;1689.60;;;;;;5096295;28;19950;-66
2022/05/15 04:49:49;;;;;;;;;;;460.80;1689.60;;;;;;5096224;28;19911;-66
2022/05/15 04:52:15;;;;;;;;;;;460.90;1689.60;;;;;;5096279;28;19908;-66
2022/05/15 04:54:41;;;;;;;;;;;460.90;1689.60;;;;;;5096010;28;20383;-68
2022/05/15 04:57:07;;;;;;;;;;;461.00;1689.60;;;;;;5095798;28;19916;-67
2022/05/15 04:59:32;;;;;;;;;;;461.10;1689.60;;;;;;5096392;28;19904;-67
2022/05/15 05:01:58;;;;;;;;;;;461.00;1689.60;;;;;;5095801;28;19911;-67
2022/05/15 05:04:24;;;;;;;;;;;461.00;1689.60;;;;;;5096074;28;20323;-67
2022/05/15 05:06:50;;;;;;;;;;;461.00;1689.60;;;;;;5096051;28;19998;-66
2022/05/15 05:09:16;;;;;;;;;;;461.20;1689.60;;;;;;5095624;28;19908;-67
2022/05/15 05:11:42;;;;;;;;;;;461.20;1664.00;;;;;;5095715;28;19904;-67
2022/05/15 05:14:08;;;;;;;;;;;461.20;1664.00;;;;;;5095703;28;19927;-67
2022/05/15 05:16:34;;;;;;;;;;;461.10;1664.00;;;;;;5095463;28;19908;-67
2022/05/15 05:19:00;;;;;;;;;;;461.40;1664.00;;;;;;5095946;28;19930;-67
2022/05/15 05:21:26;;;;;;;;;;;461.50;1664.00;;;;;;5095811;28;19908;-67
2022/05/15 05:23:51;;;;;;;;;;;461.50;1689.60;;;;;;5095594;28;19957;-66
2022/05/15 05:26:17;;;;;;;;;;;461.50;1689.60;;;;;;5095514;28;19990;-67
2022/05/15 05:28:43;;;;;;;;;;;461.50;1689.60;;;;;;5095404;28;19954;-68
2022/05/15 05:31:09;;;;;;;;;;;461.50;1689.60;;;;;;5095757;28;19957;-66
2022/05/15 05:33:34;;;;;;;;;;;461.60;1689.60;;;;;;5095498;28;19911;-65
2022/05/15 05:36:01;;;;;;;;;;;461.60;1715.20;;;;;;5076942;28;19969;-67
2022/05/15 05:38:26;;;;;;;;;;;486.40;1689.60;;;;;;5095620;28;19962;-68
2022/05/15 05:40:52;;;;;;;;;;;486.50;1689.60;;;;;;5095471;28;19908;-66
2022/05/15 05:43:18;;;;;;;;;;;486.60;1664.00;;;;;;5095443;28;19911;-67
2022/05/15 05:45:44;;;;;;;;;;;486.70;1664.00;;;;;;5095136;28;19904;-66
2022/05/15 05:48:10;;;;;;;;;;;486.80;1638.40;;;;;;5095046;28;19957;-67
2022/05/15 05:50:37;;;;;;;;;;;486.90;1638.40;;;;;;5095079;28;20049;-66
2022/05/15 05:53:03;;;;;;;;;;;487.00;1638.40;;;;;;5094777;28;19904;-67
2022/05/15 05:55:29;;;;;;;;;;;487.00;1612.80;;;;;;5095081;28;19904;-67
2022/05/15 05:57:55;;;;;;;;;;;487.10;1612.80;;;;;;5094921;28;19915;-67
2022/05/15 06:00:26;;;;;;;;;;;487.20;1587.20;;;;;;5094748;28;19957;-66
2022/05/15 06:02:51;;;;;;;;;;;487.20;1612.80;;;;;;5094804;28;20319;-67
2022/05/15 06:05:17;;;;;;;;;;;512.00;1587.20;;;;;;5094617;28;19908;-68
2022/05/15 06:07:43;;;;;;;;;;;512.00;1612.80;;;;;;5094712;28;20335;-66
2022/05/15 06:10:10;;;;;;;;;;;512.10;1612.80;;;;;;5094590;28;19904;-68
2022/05/15 06:12:36;;;;;;;;;;;512.20;1587.20;;;;;;5094534;28;19957;-66
2022/05/15 06:15:02;;;;;;;;;;;512.40;1587.20;;;;;;5094420;28;19904;-66
2022/05/15 06:17:28;;;;;;;;;;;512.50;1587.20;;;;;;5094611;28;19912;-67
2022/05/15 06:19:55;;;;;;;;;;;512.50;1561.60;;;;;;5076358;28;19945;-66
2022/05/15 06:22:21;;;;;;;;;;;512.70;1561.60;;;;;;5094355;28;19904;-67
2022/05/15 06:24:46;;;;;;;;;;;512.80;1587.20;;;;;;5094285;28;19908;-67
2022/05/15 06:27:13;;;;;;;;;;;512.90;1561.60;;;;;;5094396;28;19908;-67
2022/05/15 06:29:39;;;;;;;;;;;537.60;1561.60;;;;;;5094284;28;19997;-66
2022/05/15 06:32:05;;;;;;;;;;;537.60;1587.20;;;;;;5076206;28;19904;-66
2022/05/15 06:34:31;;;;;;;;;;;537.80;1587.20;;;;;;5094244;28;19950;-67
2022/05/15 06:36:57;;;;;;;;;;;537.90;1612.80;;;;;;5093883;28;19920;-66
2022/05/15 06:39:23;;;;;;;;;;;538.10;1561.60;;;;;;5094446;28;20326;-66
2022/05/15 06:41:50;;;;;;;;;;;538.20;1561.60;;;;;;5094114;28;19907;-67
2022/05/15 06:44:19;;;;;;;;;;;538.30;1510.40;;;;;;5076017;28;20276;-67
2022/05/15 06:46:45;;;;;;;;;;;538.40;1561.60;;;;;;5094309;28;19904;-67
2022/05/15 06:49:11;;;;;;;;;;;538.50;1510.40;;;;;;5094690;28;19951;-67
2022/05/15 06:51:37;;;;;;;;;;;563.30;1536.00;;;;;;5093994;28;19904;-67
2022/05/15 06:54:03;;;;;;;;;;;563.40;1510.40;;;;;;5093929;28;19939;-68
2022/05/15 06:59:14;;;;;;;;;;;563.80;1459.20;;;;;;5094348;28;19965;-67
2022/05/15 07:01:39;;;;;;;;;;;563.90;1459.20;;;;;;5093925;28;20295;-67
2022/05/15 07:04:05;;;;;;;;;;;;;;;;;;5095504;28;19904;-68
2022/05/15 07:06:31;;;;;;;;;;;;;;;;;;5100688;28;19911;-67
2022/05/15 07:08:57;;;;;;;;;;;589.20;1433.60;;;;;;5100851;28;19905;-68
2022/05/15 07:11:23;;;;;;;;;;;589.50;1382.40;;;;;;5100502;28;19949;-67
2022/05/15 07:13:49;;;;;;;;;;;589.40;1356.80;;;;;;5100654;28;19911;-69
2022/05/15 07:16:15;;;;;;;;;;;589.60;1356.80;;;;;;5100676;28;20356;-67
2022/05/15 07:18:41;;;;;;;4.88;1.75;;;614.60;1305.60;;;;;;5100003;28;19904;-67
2022/05/15 07:21:07;;;;;;;6.00;1.50;;;614.60;1305.60;;;;;;5099967;28;20473;-68
2022/05/15 07:23:33;;;;;;;14.73;2.00;;;615.30;1254.40;;;;;;5099907;28;20028;-69
2022/05/15 07:26:00;;;;;;;8.35;2.13;;;615.20;1254.40;;;;;;5099891;28;20054;-68
2022/05/15 07:28:26;;;;;;;4.32;1.75;;;640.10;1254.40;;;;;;5100210;28;20048;-68
2022/05/15 07:30:52;;;;;;;2.85;1.30;;;640.60;1228.80;;;;;;5099851;28;20020;-68
2022/05/15 07:33:23;;;;;;;6.03;1.73;;;640.70;1177.60;;;;;;5099885;28;20020;-66
2022/05/15 07:35:49;;;;;;;9.73;2.30;;;665.60;1203.20;;;;;;5099564;28;20024;-67
2022/05/15 07:38:16;;;;;;;11.80;1.88;;;666.10;1177.60;;;;;;5100188;28;20027;-69
2022/05/15 07:40:42;;;;;;;6.15;1.60;;;;;;;;;;5099867;28;20052;-68
2022/05/15 07:43:11;;;;;;;6.82;2.00;;;666.40;1177.60;;;;;;5098628;28;20372;-67
2022/05/15 07:45:37;;;;;;;8.55;1.83;;;691.40;1177.60;;;;;;5098618;28;20376;-68
2022/05/15 07:48:04;;;;;;;4.23;1.30;;;691.90;1126.40;;;;;;5098830;28;20411;-68
2022/05/15 07:50:30;;;;;;;8.70;1.53;;;716.80;1152.00;;;;;;5098581;28;20841;-68
2022/05/15 07:52:56;;;;;;;4.82;1.50;;;716.80;1126.40;;;;;;5098550;28;20382;-67
2022/05/15 07:55:22;;;;;;;4.50;1.73;;;716.80;1100.80;;;;;;5098669;28;20845;-67
2022/05/15 07:57:49;;;;;;;3.15;1.35;;;716.90;1049.60;;;;;;5098425;28;20530;-67
2022/05/15 08:00:16;;;;;;;5.00;1.70;;;716.90;1024.00;;;;;;5098485;28;20368;-66
2022/05/15 08:02:43;;;;;;;7.38;1.95;;;717.40;1024.00;;;;;;5098499;28;20380;-67
2022/05/15 08:08:05;;;;;;;2.78;1.20;;;717.50;1024.00;;;;;;5099792;28;20392;-69
2022/05/15 08:10:36;;;;;;;7.50;1.38;;;;;;;;;;5099020;28;20540;-69
2022/05/15 08:13:02;;;;;;;6.80;1.17;;;;;;;;;;5099054;28;20423;-69
2022/05/15 08:15:30;;;;;;;2.72;1.23;;;;;;;;;;5098572;28;20372;-67
2022/05/15 08:17:56;;;;;;;5.40;1.50;;;;;;;;;;5095953;28;20027;-68
2022/05/15 08:23:36;;;;;;;10.93;1.85;;;;;;;;;;5032987;28;20033;-69
2022/05/15 08:26:04;;;;;;;10.00;1.52;;;;;;;;;;5088204;28;20039;-69
2022/05/15 08:28:30;;;;;;;8.30;1.65;;;;;;;;;;5095574;28;20118;-67
2022/05/15 08:30:56;;;;;;;;;;;;;;;;;;5096263;28;20089;-66
2022/05/15 08:33:22;;;;;;;;;;;;;;;;;;5095957;28;19904;-68
2022/05/15 08:35:48;;;;;;;;;;;;;;;;;;5095602;28;19934;-66
2022/05/15 08:38:15;;;;;;;4.93;1.08;;;768.60;921.60;;;;;;5095481;28;19914;-67
2022/05/15 08:41:00;;;;;;;7.68;1.70;;;768.20;921.60;;;;;;5095454;28;20024;-66
2022/05/15 08:43:55;;;;;;;4.70;1.25;;;768.00;921.60;;;;;;5093075;28;20036;-67
2022/05/15 08:46:40;;;;;;;5.00;1.27;;;768.00;921.60;;;;;;5093392;28;20071;-68
2022/05/15 08:49:09;;;;;;;6.47;1.05;;;;;;;;;;5092379;28;20084;-67
2022/05/15 08:51:36;;;;;;;3.97;1.33;;;768.50;896.00;;;;;;5077034;28;20017;-67
2022/05/15 08:54:07;;;;;;;2.33;1.20;;;768.30;844.80;;;;;;5095310;28;20047;-67
2022/05/15 08:56:39;;;;;;;4.97;1.40;;;768.20;870.40;;;;;;5093980;28;20392;-68
2022/05/15 08:59:18;;;;;;;3.10;1.40;;;768.50;844.80;;;;;;5095024;28;20020;-67
2022/05/15 09:01:52;;;;;;;4.05;1.45;;;768.60;870.40;;;;;;5095000;28;20733;-67
2022/05/15 09:04:19;;;;;;;8.45;1.48;;;768.60;844.80;;;;;;5095013;28;20465;-68
2022/05/15 09:07:09;;;;;;;4.85;1.08;;;768.80;870.40;;;;;;5094876;28;20020;-65
2022/05/15 09:09:52;;;;;;;6.50;1.33;;;768.70;870.40;;;;;;5093219;28;20020;-69
2022/05/15 09:12:23;;;;;;;3.50;1.40;;;794.10;870.40;;;;;;5090783;28;20480;-69
2022/05/15 09:15:04;;;;;;;6.45;1.52;;;794.00;844.80;;;;;;5092305;28;20055;-69
2022/05/15 09:18:01;;;;;;;3.85;1.48;;;794.10;870.40;;;;;;5092365;28;20119;-69
2022/05/15 09:20:32;;;;;;;3.85;1.00;;;794.10;844.80;;;;;;5091724;28;20027;-66
2022/05/15 09:23:13;;;;;;;4.10;1.17;;;793.90;844.80;;;;;;5094650;28;20081;-68
2022/05/15 09:25:39;;;;;;;24.15;2.25;;;794.00;819.20;;;;;;5075278;28;20043;-67
2022/05/15 09:28:11;;;;;;;5.07;1.40;;;794.00;819.20;;;;;;5093946;28;20380;-66
2022/05/15 09:30:43;;;;;;;3.63;1.35;;;794.00;844.80;;;;;;5094292;28;20028;-66
2022/05/15 09:33:30;;;;;;;8.65;1.33;;;794.00;844.80;;;;;;5091896;28;20024;-68
2022/05/15 09:36:26;;;;;;;11.82;1.52;;;793.90;844.80;;;;;;5089689;28;20120;-68
2022/05/15 09:39:25;;;;;;;5.30;0.90;;;768.80;819.20;;;;;;5094239;28;20020;-69
2022/05/15 09:44:47;;;;;;;2.20;0.93;;;793.70;870.40;;;;;;5093509;28;20414;-69
2022/05/15 09:47:18;;;;;;;;;;;794.10;844.80;;;;;;5094620;28;20441;-69
2022/05/15 09:49:45;;;;;;;;;;;794.00;844.80;;;;;;5094435;28;19904;-67
2022/05/15 09:52:11;;;;;;;;;;;793.80;819.20;;;;;;5094446;28;19904;-66
2022/05/15 09:54:38;;;;;;;;;;;794.00;819.20;;;;;;5094427;28;19904;-69
2022/05/15 09:57:08;;;;;;;;;;;794.10;844.80;;;;;;5094229;28;20277;-69
2022/05/15 09:59:34;;;;;;;;;;;794.10;844.80;;;;;;5093752;28;19919;-70
2022/05/15 10:02:00;;;;;;;;;;;793.80;793.60;;;;;;5093418;28;20306;-69
2022/05/15 10:04:28;;;;;;;;;;;794.10;768.00;;;;;;5093305;28;19949;-69
2022/05/15 10:07:02;;;;;;;;;;;794.10;768.00;;;;;;5090930;28;19963;-69
2022/05/15 10:09:35;;;;;;;;;;;794.10;819.20;;;;;;5093084;28;19908;-69
2022/05/15 10:12:04;;;;;;;;;;;794.10;819.20;;;;;;5093308;28;19999;-69
2022/05/15 10:14:33;;;;;;;;;;;794.10;844.80;;;;;;5093318;28;19982;-66
2022/05/15 10:16:59;;;;;;;;;;;794.10;819.20;;;;;;5092921;28;19918;-68
2022/05/15 10:19:32;;;;;;;;;;;794.50;819.20;;;;;;5093265;28;19908;-69
2022/05/15 10:22:05;;;;;;;;;;;794.40;819.20;;;;;;5090967;28;20387;-70
2022/05/15 10:24:33;;;;;;;;;;;794.30;819.20;;;;;;5093433;28;19948;-68
2022/05/15 10:27:02;;;;;;;;;;;794.30;793.60;;;;;;5092954;28;20356;-69
2022/05/15 10:29:36;;;;;;;;;;;794.50;819.20;;;;;;5093081;28;19911;-68
2022/05/15 10:32:05;;;;;;;;;;;794.30;768.00;;;;;;5093154;28;19911;-67
2022/05/15 10:34:31;;;;;;;;;;;794.30;793.60;;;;;;5093013;28;19915;-68
2022/05/15 10:37:06;;;;;;;;;;;794.30;819.20;;;;;;5092534;28;20292;-68
2022/05/15 10:39:31;;;;;;;;;;;794.30;819.20;;;;;;5073931;28;19911;-67
2022/05/15 10:42:13;;;;;;;;;;;794.10;819.20;;;;;;5092714;28;19908;-68
2022/05/15 10:44:52;;;;;;;;;;;794.10;819.20;;;;;;5090474;28;20415;-67
2022/05/15 10:47:19;;;;;;;;;;;794.00;819.20;;;;;;5091531;28;20341;-68
2022/05/15 10:49:44;;;;;;;;;;;794.10;793.60;;;;;;5093741;28;19911;-69
2022/05/15 10:52:13;;;;;;;;;;;794.00;793.60;;;;;;5093650;28;19903;-69
2022/05/15 10:57:40;;;;;;;;;;;793.70;793.60;;;;;;5091204;28;20015;-66
2022/05/15 11:00:20;;;;;;;;;;;794.00;793.60;;;;;;5090815;28;19987;-67
2022/05/15 11:02:54;;;;;;;;;;;794.10;793.60;;;;;;5092484;28;19949;-69
2022/05/15 11:05:21;;;;;;;;;;;794.30;793.60;;;;;;5091525;28;19904;-70
2022/05/15 11:07:58;;;;;;;;;;;794.30;819.20;;;;;;5093382;28;19911;-67
2022/05/15 11:10:24;;;;;;;;;;;794.40;819.20;;;;;;5093981;28;19908;-67
2022/05/15 11:12:59;;;;;;;;;;;794.40;819.20;;;;;;5093714;28;19949;-66
2022/05/15 11:15:34;;;;;;;;;;;794.50;793.60;;;;;;5093448;28;19908;-69
2022/05/15 11:18:13;;;;;;;;;;;794.40;793.60;;;;;;5091453;28;19915;-66
2022/05/15 11:20:46;;;;;;;;;;;794.50;793.60;;;;;;5093644;28;20003;-67
2022/05/15 11:23:16;;;;;;;;;;;794.40;793.60;;;;;;5093637;28;20040;-70
2022/05/15 11:25:47;;;;;;;;;;;794.40;793.60;;;;;;5093840;28;19953;-69
2022/05/15 11:28:18;;;;;;;;;;;794.40;819.20;;;;;;5093588;28;19905;-70
2022/05/15 11:30:45;;;;;;;;;;;794.50;819.20;;;;;;5093525;28;19904;-66
2022/05/15 11:33:31;;;;;;;;;;;794.40;793.60;;;;;;5093728;28;20314;-67
2022/05/15 11:36:10;;;;;;;;;;;819.20;819.20;;;;;;5092149;28;20360;-69
2022/05/15 11:38:46;;;;;;;;;;;794.40;768.00;;;;;;5093001;28;19911;-67
2022/05/15 11:42:08;;;;;;;;;;;819.30;793.60;;;;;;5093027;28;19904;-69
2022/05/15 11:44:37;;;;;;;;;;;819.30;793.60;;;;;;4991406;28;19905;-71
2022/05/15 11:47:03;;;;;;;;;;;;;;;;;;4991358;28;19905;-69
2022/05/15 11:49:29;;;;;;;;;;;;;;;;;;4991484;28;19906;-70
2022/05/15 11:51:55;;;;;;;;;;;;;;;;;;4994378;28;19913;-68
2022/05/15 11:54:21;;;;;;;;;;;;;;;;;;4995103;28;19910;-69
2022/05/15 11:56:47;;;;;;;;;;;;;;;;;;4995035;28;20417;-71
2022/05/15 11:59:13;;;;;;;;;;;;;;;;;;4994965;28;20014;-69
2022/05/15 12:01:40;;;;;;;;;;;;;;;;;;4994972;28;20337;-69
2022/05/15 12:04:07;;;;;;;;;;;;;;;;;;4994847;28;19906;-70
2022/05/15 12:06:33;;;;;;;;;;;;;;;;;;4994933;28;20279;-70
2022/05/15 12:08:59;;;;;;;;;;;;;;;;;;4995164;28;19952;-67
2022/05/15 12:11:32;;;;;;;4.93;1.40;;;820.10;793.60;;;;;;4995090;28;19906;-67
2022/05/15 12:14:11;;;;;;;3.03;1.25;;;820.00;768.00;;;;;;4993840;28;20424;-69
2022/05/15 12:17:03;;;;;;;3.42;1.27;;;819.90;768.00;;;;;;4993758;28;20169;-69
2022/05/15 12:19:33;;;;;;;5.68;1.10;;;819.90;793.60;;;;;;5059448;28;20028;-69
2022/05/15 12:22:07;;;;;;;4.88;1.08;;;819.90;793.60;;;;;;5096095;28;20054;-71
2022/05/15 12:24:36;;;;;;;4.30;1.58;;;819.90;793.60;;;;;;5093946;28;20020;-68
2022/05/15 12:27:20;;;;;;;3.95;1.30;;;819.60;819.20;;;;;;5095879;28;20028;-69
2022/05/15 12:30:15;;;;;;;4.05;1.33;;;819.70;819.20;;;;;;5092765;28;20095;-67
2022/05/15 12:32:54;;;;;;;3.50;1.20;;;819.90;793.60;;;;;;5092974;28;20039;-70
2022/05/15 12:35:24;;;;;;;4.18;1.10;;;819.90;768.00;;;;;;5095758;28;20024;-69
2022/05/15 12:37:55;;;;;;;3.92;1.42;;;819.90;768.00;;;;;;5095254;28;20044;-70
2022/05/15 12:40:24;;;;;;;3.25;1.33;;;820.00;768.00;;;;;;5095375;28;20016;-70
2022/05/15 12:42:50;;;;;;;3.88;1.27;;;;;;;;;;5095342;28;20031;-69
2022/05/15 12:45:21;;;;;;;7.80;1.50;;;845.10;793.60;;;;;;5095182;28;20511;-69
2022/05/15 12:48:08;;;;;;;5.85;1.52;;;845.00;793.60;;;;;;5095273;28;20080;-70
2022/05/15 12:51:07;;;;;;;2.47;1.20;;;844.90;793.60;;;;;;5094645;28;20058;-67
2022/05/15 12:53:43;;;;;;;3.28;1.10;;;;;;;;;;5091428;28;20024;-70
2022/05/15 12:56:11;;;;;;;10.98;1.52;;;;;;;;;;5093567;28;20044;-70
2022/05/15 12:58:38;;;;;;;3.75;1.23;;;;;;;;;;5095062;28;20027;-69
2022/05/15 13:01:04;;;;;;;4.88;1.17;;;;;;;;;;5095084;28;20020;-67
2022/05/15 13:03:31;;;;;;;4.28;1.40;;;;;;;;;;5094131;28;20027;-71
2022/05/15 13:05:58;;;;;;;3.25;1.17;;;;;;;;;;5094887;28;20024;-68
2022/05/15 13:08:25;;;;;;;4.50;1.20;;;;;;;;;;5094918;28;20103;-67
2022/05/15 13:10:56;;;;;;;6.32;1.67;;;;;;;;;;5094942;28;20052;-72
2022/05/15 13:13:29;;;;;;;2.63;1.00;;;845.50;768.00;;;;;;5092439;28;20020;-72
2022/05/15 13:15:57;;;;;;;3.03;1.50;;;845.30;742.40;;;;;;5076475;28;20111;-69
2022/05/15 13:18:26;;;;;;;3.03;1.08;;;845.10;768.00;;;;;;5094986;28;20441;-70
2022/05/15 13:21:10;;;;;;;4.07;1.60;;;845.00;768.00;;;;;;5094866;28;20027;-70
2022/05/15 13:23:45;;;;;;;4.57;1.63;;;845.00;768.00;;;;;;5094928;28;20028;-67
2022/05/15 13:26:19;;;;;;;7.00;1.52;;;845.10;742.40;;;;;;5076957;28;20061;-68
2022/05/15 13:28:46;;;;;;;6.43;1.63;;;845.00;768.00;;;;;;5095102;28;20052;-71
2022/05/15 13:31:13;;;;;;;5.90;1.10;;;820.10;768.00;;;;;;5094876;28;20028;-71
2022/05/15 13:33:42;;;;;;;5.43;1.10;;;820.10;742.40;;;;;;5094797;28;20066;-69
2022/05/15 13:36:14;;;;;;;3.22;1.05;;;820.00;768.00;;;;;;5094272;28;20097;-70
2022/05/15 13:44:14;;;;;;;3.90;0.95;;;819.90;742.40;;;;;;5095009;28;20043;-68
2022/05/15 13:46:59;;;;;;;4.57;1.25;;;819.80;742.40;;;;;;5094192;28;20035;-70
2022/05/15 13:49:39;;;;;;;2.78;1.10;;;819.70;768.00;;;;;;5094990;28;20020;-69
2022/05/15 13:52:22;;;;;;;4.90;0.80;;;819.90;742.40;;;;;;5094774;28;20059;-69
2022/05/15 13:54:48;;;;;;;3.22;1.42;;;820.10;742.40;;;;;;5094517;28;20063;-69
2022/05/15 13:57:14;;;;;;;6.40;1.02;;;819.80;768.00;;;;;;5094349;28;20059;-69
2022/05/15 13:59:51;;;;;;;2.35;1.30;;;819.70;742.40;;;;;;5094385;28;20020;-68
2022/05/15 14:02:29;;;;;;;6.63;1.42;;;819.70;793.60;;;;;;5094247;28;20032;-69
2022/05/15 14:04:59;;;;;;;4.35;1.10;;;819.70;768.00;;;;;;5094338;28;20069;-68
2022/05/15 14:07:33;;;;;;;2.22;1.10;;;819.60;768.00;;;;;;5094263;28;20020;-69
2022/05/15 14:10:16;;;;;;;3.88;1.30;;;819.50;768.00;;;;;;5093974;28;20024;-69
2022/05/15 14:12:53;;;;;;;6.78;1.30;;;819.40;768.00;;;;;;5094467;28;20453;-69
2022/05/15 14:15:37;;;;;;;5.30;0.98;;;819.70;793.60;;;;;;5094372;28;20028;-68
2022/05/15 14:18:07;;;;;;;4.65;1.23;;;819.30;793.60;;;;;;5094073;28;20032;-69